Time;durP1;ratioP1;P1;durP2;ratioP2;P2;SDS_P1;SDS_P2;PMS_P1;PMS_P2;Temp;Humidity;BMP_temperature;BMP_pressure;BME280_temperature;BME280_humidity;BME280_pressure;Samples;Min_cycle;Max_cycle;Signal;HPM_P1;HPM_P2
2023/10/06 00:01:33;;;;;;;10.18;4.00;;;13.70;99.90;;;;;;5101106;28;20044;-84
2023/10/06 00:04:06;;;;;;;9.60;4.20;;;13.70;99.90;;;;;;5105861;28;20130;-83
2023/10/06 00:06:38;;;;;;;7.60;3.90;;;13.70;99.90;;;;;;5078855;28;20134;-83
2023/10/06 00:09:06;;;;;;;8.67;4.33;;;13.70;99.90;;;;;;5086455;28;20044;-83
2023/10/06 00:11:32;;;;;;;12.65;4.68;;;13.70;99.90;;;;;;5094053;28;20146;-83
2023/10/06 00:14:07;;;;;;;8.85;4.05;;;13.70;99.90;;;;;;5099028;28;20134;-83
2023/10/06 00:16:39;;;;;;;11.70;4.10;;;13.70;99.90;;;;;;5086544;28;20127;-84
2023/10/06 00:19:22;;;;;;;8.30;4.35;;;13.70;99.90;;;;;;5087190;28;20402;-83
2023/10/06 00:21:53;;;;;;;12.02;4.80;;;13.70;99.90;;;;;;5095919;28;20098;-83
2023/10/06 00:24:25;;;;;;;7.85;4.22;;;13.70;99.90;;;;;;5101836;28;20518;-84
2023/10/06 00:26:52;;;;;;;6.38;4.43;;;13.70;99.90;;;;;;5087235;28;20055;-84
2023/10/06 00:29:23;;;;;;;8.75;4.72;;;13.70;99.90;;;;;;5099748;28;20043;-84
2023/10/06 00:31:49;;;;;;;9.90;4.93;;;13.60;99.90;;;;;;5100497;28;20057;-83
2023/10/06 00:34:19;;;;;;;9.45;4.88;;;13.70;99.90;;;;;;5089138;28;20048;-83
2023/10/06 00:36:51;;;;;;;12.90;4.90;;;13.70;99.90;;;;;;5075420;28;20065;-84
2023/10/06 00:39:18;;;;;;;;;;;13.70;99.90;;;;;;5106229;28;20496;-84
2023/10/06 00:41:44;;;;;;;7.32;4.68;;;13.70;99.90;;;;;;5089242;28;19920;-83
2023/10/06 00:44:10;;;;;;;9.20;5.13;;;13.70;99.90;;;;;;5097332;28;20109;-84
2023/10/06 00:46:36;;;;;;;11.73;5.45;;;13.70;99.90;;;;;;5092676;28;20568;-84
2023/10/06 00:49:04;;;;;;;11.10;5.18;;;13.70;99.90;;;;;;5091509;28;20055;-83
2023/10/06 00:51:30;;;;;;;8.82;5.93;;;13.70;99.90;;;;;;5087122;28;20965;-83
2023/10/06 00:53:56;;;;;;;8.93;6.03;;;13.70;99.90;;;;;;5103742;28;20092;-83
2023/10/06 00:56:28;;;;;;;10.07;6.25;;;13.60;99.90;;;;;;5087871;28;20051;-83
2023/10/06 00:58:54;;;;;;;11.10;5.40;;;13.70;99.90;;;;;;5100451;28;20620;-83
2023/10/06 01:01:21;;;;;;;10.85;6.03;;;13.60;99.90;;;;;;5094173;28;20079;-83
2023/10/06 01:04:00;;;;;;;10.50;6.28;;;13.70;99.90;;;;;;5101918;28;20135;-84
2023/10/06 01:06:33;;;;;;;11.75;5.97;;;13.70;99.90;;;;;;5102117;28;20551;-83
2023/10/06 01:09:12;;;;;;;8.93;6.03;;;13.60;99.90;;;;;;5105845;28;20044;-83
2023/10/06 01:11:45;;;;;;;13.13;6.78;;;13.70;99.90;;;;;;5102962;28;20043;-83
2023/10/06 01:14:11;;;;;;;8.57;5.75;;;13.60;99.90;;;;;;5092274;28;20444;-84
2023/10/06 01:16:37;;;;;;;10.57;6.10;;;13.70;99.90;;;;;;5105474;28;20509;-84
2023/10/06 01:21:48;;;;;;;10.68;6.30;;;13.70;99.90;;;;;;5092241;28;20063;-83
2023/10/06 01:24:23;;;;;;;13.95;6.20;;;13.60;99.90;;;;;;5106457;28;20053;-83
2023/10/06 01:26:49;;;;;;;10.98;6.60;;;13.60;99.90;;;;;;5089202;28;20401;-83
2023/10/06 01:29:15;;;;;;;12.05;6.03;;;13.60;99.90;;;;;;5108853;28;20051;-84
2023/10/06 01:31:41;;;;;;;12.05;6.80;;;13.70;99.90;;;;;;5107155;28;20139;-84
2023/10/06 01:34:08;;;;;;;12.63;6.57;;;13.60;99.90;;;;;;5103472;28;20054;-84
2023/10/06 01:36:35;;;;;;;13.05;6.53;;;13.70;99.90;;;;;;5073059;28;20054;-83
2023/10/06 01:39:05;;;;;;;10.38;6.47;;;13.60;99.90;;;;;;5073315;28;20825;-84
2023/10/06 01:41:35;;;;;;;10.85;6.03;;;13.60;99.90;;;;;;5096464;28;20521;-83
2023/10/06 01:44:10;;;;;;;11.85;6.72;;;13.70;99.90;;;;;;5088915;28;20036;-84
2023/10/06 01:46:37;;;;;;;9.32;6.32;;;13.60;99.90;;;;;;5094750;28;20058;-84
2023/10/06 01:49:03;;;;;;;10.40;6.35;;;13.60;99.90;;;;;;5092184;28;20510;-84
2023/10/06 01:51:35;;;;;;;12.25;7.55;;;13.60;99.90;;;;;;5085642;28;20050;-83
2023/10/06 01:54:02;;;;;;;12.10;7.28;;;13.60;99.90;;;;;;5104225;28;20509;-84
2023/10/06 01:56:31;;;;;;;10.48;6.50;;;13.60;99.90;;;;;;5092186;28;20054;-83
2023/10/06 01:58:57;;;;;;;10.18;6.47;;;13.60;99.90;;;;;;5105734;28;20515;-83
2023/10/06 02:01:23;;;;;;;12.73;6.93;;;13.50;99.90;;;;;;5101470;28;20465;-86
2023/10/06 02:03:49;;;;;;;8.85;6.65;;;13.50;99.90;;;;;;5095824;28;20048;-83
2023/10/06 02:06:16;;;;;;;8.50;6.20;;;13.50;99.90;;;;;;5106566;28;20079;-84
2023/10/06 02:08:52;;;;;;;12.93;7.22;;;13.50;99.90;;;;;;5110100;28;20054;-84
2023/10/06 02:11:21;;;;;;;10.88;6.60;;;13.50;99.90;;;;;;5086244;28;20521;-83
2023/10/06 02:13:47;;;;;;;10.82;6.38;;;13.50;99.90;;;;;;5092921;28;20167;-84
2023/10/06 02:16:13;;;;;;;11.65;6.75;;;13.50;99.90;;;;;;5090419;28;20069;-83
2023/10/06 02:18:40;;;;;;;10.40;6.70;;;13.60;99.90;;;;;;5100451;28;20044;-83
2023/10/06 02:21:11;;;;;;;12.40;7.10;;;13.50;99.90;;;;;;5089216;28;20051;-83
2023/10/06 02:23:38;;;;;;;11.07;6.10;;;13.80;99.90;;;;;;5087559;28;20043;-83
2023/10/06 02:26:09;;;;;;;10.10;6.05;;;13.60;99.90;;;;;;5108854;28;20487;-84
2023/10/06 02:28:40;;;;;;;11.32;6.53;;;13.60;99.90;;;;;;5091430;28;20047;-83
2023/10/06 02:31:06;;;;;;;8.10;6.38;;;13.60;99.90;;;;;;5090271;28;20159;-84
2023/10/06 02:33:40;;;;;;;13.13;6.63;;;13.60;99.90;;;;;;5101722;28;20158;-84
2023/10/06 02:36:22;;;;;;;10.93;6.50;;;13.60;99.90;;;;;;5092482;28;20035;-83
2023/10/06 02:38:48;;;;;;;13.80;6.80;;;13.60;99.90;;;;;;5106303;28;20444;-84
2023/10/06 02:41:18;;;;;;;10.57;6.18;;;13.60;99.90;;;;;;5107857;28;20044;-83
2023/10/06 02:43:53;;;;;;;12.20;7.13;;;13.60;99.90;;;;;;5087640;28;20051;-83
2023/10/06 02:46:21;;;;;;;11.27;6.60;;;13.80;99.90;;;;;;5080807;28;20491;-83
2023/10/06 02:48:50;;;;;;;12.05;7.13;;;13.60;99.90;;;;;;5106996;28;20532;-83
2023/10/06 02:52:00;;;;;;;12.25;6.30;;;13.70;99.90;;;;;;5092712;28;20044;-83
2023/10/06 02:56:46;;;;;;;10.80;7.10;;;13.60;99.90;;;;;;5099687;28;20048;-83
2023/10/06 02:59:21;;;;;;;10.05;6.97;;;13.60;99.90;;;;;;5094880;28;20112;-83
2023/10/06 03:01:55;;;;;;;10.68;7.22;;;13.60;99.90;;;;;;5098538;28;20123;-84
2023/10/06 03:04:22;;;;;;;11.70;6.97;;;13.50;99.90;;;;;;5088451;28;20047;-86
2023/10/06 03:06:57;;;;;;;10.40;6.80;;;13.50;99.90;;;;;;5092063;28;20036;-84
2023/10/06 03:09:38;;;;;;;15.70;7.30;;;13.60;99.90;;;;;;5091718;28;20074;-85
2023/10/06 03:14:48;;;;;;;12.20;7.00;;;13.50;99.90;;;;;;5103530;28;20131;-84
2023/10/06 03:17:14;;;;;;;13.98;6.97;;;13.50;99.90;;;;;;5103526;28;20118;-86
2023/10/06 03:19:40;;;;;;;14.55;7.72;;;13.50;99.90;;;;;;5074033;28;20032;-85
2023/10/06 03:22:13;;;;;;;12.32;7.07;;;13.50;99.90;;;;;;5097109;28;20040;-84
2023/10/06 03:24:57;;;;;;;11.18;6.90;;;13.40;99.90;;;;;;5087932;28;20031;-84
2023/10/06 03:27:23;;;;;;;10.10;7.10;;;13.40;99.90;;;;;;5071369;28;20048;-85
2023/10/06 03:29:56;;;;;;;11.82;6.82;;;13.30;99.90;;;;;;5092552;28;20046;-84
2023/10/06 03:32:32;;;;;;;16.15;7.18;;;13.30;99.90;;;;;;5109693;28;20046;-84
2023/10/06 03:35:05;;;;;;;12.73;7.40;;;13.30;99.90;;;;;;5098596;28;20087;-84
2023/10/06 03:38:08;;;;;;;12.57;7.40;;;13.20;99.90;;;;;;5096219;28;20086;-84
2023/10/06 03:42:56;;;;;;;11.95;7.55;;;13.20;99.90;;;;;;5107188;27;20047;-85
2023/10/06 03:45:32;;;;;;;13.73;7.38;;;13.20;99.90;;;;;;5126496;27;20043;-84
2023/10/06 03:48:08;;;;;;;13.32;6.43;;;13.20;99.90;;;;;;5091007;28;20051;-84
2023/10/06 03:50:38;;;;;;;12.75;7.40;;;13.60;99.90;;;;;;5096613;27;20039;-83
2023/10/06 03:53:07;;;;;;;11.55;6.65;;;13.20;99.90;;;;;;5110071;27;20039;-84
2023/10/06 03:55:39;;;;;;;13.18;7.22;;;13.20;99.90;;;;;;5087966;27;20527;-85
2023/10/06 03:58:09;;;;;;;15.65;7.32;;;13.40;99.90;;;;;;5097323;28;20414;-84
2023/10/06 04:00:40;;;;;;;11.95;6.60;;;13.20;99.90;;;;;;5090317;28;20125;-85
2023/10/06 04:03:13;;;;;;;11.05;6.93;;;13.20;99.90;;;;;;5075224;27;20039;-85
2023/10/06 04:05:44;;;;;;;11.75;7.13;;;13.20;99.90;;;;;;5073598;28;20036;-85
2023/10/06 04:08:16;;;;;;;12.00;6.72;;;13.30;99.90;;;;;;5073361;28;20498;-85
2023/10/06 04:10:44;;;;;;;11.02;6.47;;;13.20;99.90;;;;;;5095501;27;20066;-84
2023/10/06 04:13:10;;;;;;;10.15;7.32;;;13.20;99.90;;;;;;5109543;27;20118;-85
2023/10/06 04:15:43;;;;;;;10.10;6.55;;;13.20;99.90;;;;;;5081195;28;20122;-84
2023/10/06 04:18:10;;;;;;;10.88;7.00;;;13.20;99.90;;;;;;5090568;28;20051;-86
2023/10/06 04:20:40;;;;;;;9.93;6.60;;;13.20;99.90;;;;;;5073356;28;20043;-85
2023/10/06 04:23:07;;;;;;;13.07;6.20;;;13.30;99.90;;;;;;5090526;28;20503;-86
2023/10/06 04:25:37;;;;;;;9.65;6.60;;;13.20;99.90;;;;;;5119593;27;20035;-85
2023/10/06 04:28:05;;;;;;;11.82;6.30;;;13.30;99.90;;;;;;5081526;28;20051;-84
2023/10/06 04:30:30;;;;;;;10.07;6.22;;;13.20;99.90;;;;;;5108789;27;20043;-84
2023/10/06 04:32:56;;;;;;;12.43;6.65;;;13.20;99.90;;;;;;5110443;27;20050;-85
2023/10/06 04:35:24;;;;;;;11.45;6.00;;;13.30;99.90;;;;;;5109200;27;20050;-85
2023/10/06 04:37:50;;;;;;;15.68;6.30;;;13.20;99.90;;;;;;5107476;27;20043;-85
2023/10/06 04:40:20;;;;;;;10.48;6.00;;;13.20;99.90;;;;;;5075541;28;20059;-84
2023/10/06 04:42:46;;;;;;;10.45;5.57;;;13.10;99.90;;;;;;5086501;28;20590;-84
2023/10/06 04:45:12;;;;;;;11.35;6.05;;;13.00;99.90;;;;;;5092516;28;20051;-85
2023/10/06 04:47:42;;;;;;;12.65;7.03;;;13.00;99.90;;;;;;5074631;27;20040;-84
2023/10/06 04:50:11;;;;;;;11.93;5.78;;;13.00;99.90;;;;;;5105129;28;20055;-84
2023/10/06 04:52:38;;;;;;;11.02;6.18;;;13.00;99.90;;;;;;5106650;28;20051;-84
2023/10/06 04:55:10;;;;;;;10.43;6.03;;;12.90;99.90;;;;;;5108095;27;20050;-84
2023/10/06 04:57:35;;;;;;;11.60;5.68;;;13.00;99.90;;;;;;5087566;28;20843;-84
2023/10/06 05:00:01;;;;;;;12.45;5.93;;;13.40;99.90;;;;;;5100123;27;20042;-84
2023/10/06 05:02:26;;;;;;;15.07;6.20;;;12.90;99.90;;;;;;5109576;28;20043;-85
2023/10/06 05:04:56;;;;;;;13.68;5.95;;;12.90;99.90;;;;;;5092104;28;20142;-84
2023/10/06 05:07:24;;;;;;;11.27;6.20;;;13.20;99.90;;;;;;5108230;28;20127;-85
2023/10/06 05:09:52;;;;;;;11.60;6.30;;;12.90;99.90;;;;;;5095375;28;20074;-84
2023/10/06 05:12:18;;;;;;;8.60;5.70;;;13.00;99.90;;;;;;5089104;28;20135;-87
2023/10/06 05:14:46;;;;;;;10.73;6.05;;;13.30;99.90;;;;;;5072417;28;20051;-85
2023/10/06 05:17:16;;;;;;;11.82;5.63;;;13.00;99.90;;;;;;5072801;28;20044;-86
2023/10/06 05:19:42;;;;;;;13.23;6.97;;;13.00;99.90;;;;;;5072643;28;20058;-85
2023/10/06 05:22:08;;;;;;;10.35;5.53;;;13.20;99.90;;;;;;5089126;28;20122;-85
2023/10/06 05:24:34;;;;;;;12.38;6.45;;;13.10;99.90;;;;;;5099835;28;20036;-86
2023/10/06 05:27:02;;;;;;;10.82;6.50;;;13.10;99.90;;;;;;5081568;28;20054;-86
2023/10/06 05:29:28;;;;;;;9.90;6.55;;;13.10;99.90;;;;;;5088467;28;20050;-86
2023/10/06 05:31:54;;;;;;;10.23;5.90;;;13.60;99.90;;;;;;5088633;28;20147;-85
2023/10/06 05:34:19;;;;;;;12.45;6.63;;;13.10;99.90;;;;;;5093466;28;20054;-85
2023/10/06 05:36:45;;;;;;;10.23;6.22;;;13.10;99.90;;;;;;5089297;28;20055;-85
2023/10/06 05:39:11;;;;;;;11.48;6.07;;;13.20;99.90;;;;;;5089704;28;20521;-87
2023/10/06 05:41:39;;;;;;;11.27;6.70;;;13.10;99.90;;;;;;5106299;28;20108;-85
2023/10/06 05:44:08;;;;;;;10.57;6.38;;;13.20;99.90;;;;;;5093447;28;20047;-86
2023/10/06 05:46:34;;;;;;;10.57;6.10;;;13.20;99.90;;;;;;5110026;28;20054;-86
2023/10/06 05:49:03;;;;;;;13.45;6.25;;;13.20;99.90;;;;;;5099929;28;20044;-86
2023/10/06 05:51:33;;;;;;;13.52;6.53;;;13.20;99.90;;;;;;5089563;28;20413;-86
2023/10/06 05:53:58;;;;;;;12.02;6.47;;;13.50;99.90;;;;;;5089464;28;20082;-85
2023/10/06 05:56:26;;;;;;;10.35;5.97;;;13.30;99.90;;;;;;5089706;28;20128;-87
2023/10/06 05:58:53;;;;;;;11.98;5.95;;;13.30;99.90;;;;;;5097648;28;20173;-86
2023/10/06 06:01:20;;;;;;;12.63;5.82;;;13.60;99.90;;;;;;5094136;28;20115;-84
2023/10/06 06:03:46;;;;;;;12.77;6.47;;;13.40;99.90;;;;;;5089867;28;20494;-85
2023/10/06 06:06:14;;;;;;;13.75;6.68;;;13.40;99.90;;;;;;5073615;28;20048;-86
2023/10/06 06:08:43;;;;;;;13.43;6.22;;;13.50;99.90;;;;;;5083757;28;20046;-84
2023/10/06 06:11:09;;;;;;;11.68;6.20;;;13.50;99.90;;;;;;5092346;28;20054;-85
2023/10/06 06:13:38;;;;;;;12.45;6.38;;;13.50;99.90;;;;;;5113129;27;20410;-86
2023/10/06 06:16:07;;;;;;;10.95;6.80;;;13.60;99.90;;;;;;5109156;27;20197;-86
2023/10/06 06:18:42;;;;;;;12.25;6.47;;;13.60;99.90;;;;;;5078076;28;20054;-91
2023/10/06 06:21:08;;;;;;;13.60;6.32;;;13.70;99.90;;;;;;5098589;28;20176;-92
2023/10/06 06:23:35;;;;;;;11.38;5.90;;;13.70;99.90;;;;;;5084240;28;20227;-92
2023/10/06 06:26:07;;;;;;;13.02;6.85;;;13.80;99.90;;;;;;5083415;28;20040;-92
2023/10/06 06:28:36;;;;;;;;;;;13.80;99.90;;;;;;5091012;27;20065;-89
2023/10/06 06:31:20;;;;;;;9.40;5.93;;;13.80;99.90;;;;;;5118231;27;19931;-93
2023/10/06 06:34:04;;;;;;;9.25;6.05;;;13.90;99.90;;;;;;5087894;27;20047;-94
2023/10/06 06:36:34;;;;;;;14.77;6.57;;;14.00;99.90;;;;;;5102816;27;20127;-91
2023/10/06 06:39:01;;;;;;;13.55;6.65;;;13.90;99.90;;;;;;5101027;28;20712;-90
2023/10/06 06:41:31;;;;;;;11.63;5.82;;;13.90;99.90;;;;;;5100882;28;20193;-90
2023/10/06 06:44:01;;;;;;;11.77;6.18;;;14.00;99.90;;;;;;5095626;28;20048;-88
2023/10/06 06:46:29;;;;;;;13.00;6.43;;;14.00;99.90;;;;;;5095002;28;20482;-87
2023/10/06 06:48:55;;;;;;;15.32;6.47;;;14.00;99.90;;;;;;5104663;28;20050;-88
2023/10/06 06:51:27;;;;;;;13.13;6.20;;;14.10;99.90;;;;;;5110439;28;20047;-88
2023/10/06 06:53:56;;;;;;;12.00;5.80;;;14.20;99.90;;;;;;5092128;28;20103;-86
2023/10/06 06:56:29;;;;;;;10.63;6.25;;;14.20;99.90;;;;;;5111632;28;20079;-90
2023/10/06 06:58:56;;;;;;;12.48;5.93;;;14.30;99.90;;;;;;5115422;28;20043;-91
2023/10/06 07:01:22;;;;;;;8.52;5.57;;;14.30;99.90;;;;;;5098709;28;20036;-90
2023/10/06 07:03:50;;;;;;;15.07;6.13;;;14.40;99.90;;;;;;5114091;28;20063;-90
2023/10/06 07:06:16;;;;;;;10.38;6.00;;;14.40;99.90;;;;;;5094841;28;20083;-89
2023/10/06 07:08:46;;;;;;;8.73;5.40;;;14.40;99.90;;;;;;5077330;28;20040;-88
2023/10/06 07:11:13;;;;;;;9.82;6.00;;;14.40;99.90;;;;;;5078218;28;20051;-92
2023/10/06 07:13:39;;;;;;;10.55;5.60;;;14.40;99.90;;;;;;5079202;28;20044;-91
2023/10/06 07:16:09;;;;;;;9.02;5.50;;;14.50;99.90;;;;;;5077909;28;20036;-91
2023/10/06 07:18:36;;;;;;;11.75;5.53;;;14.40;99.90;;;;;;5074384;28;20118;-89
2023/10/06 07:21:08;;;;;;;12.57;5.68;;;14.50;99.90;;;;;;5075733;28;20047;-89
2023/10/06 07:23:37;;;;;;;10.27;6.03;;;14.50;99.90;;;;;;5077388;28;20353;-91
2023/10/06 07:26:09;;;;;;;11.60;5.70;;;14.60;99.90;;;;;;5076495;28;20083;-89
2023/10/06 07:28:40;;;;;;;12.45;5.90;;;14.50;99.90;;;;;;5077710;28;20048;-90
2023/10/06 07:31:16;;;;;;;13.82;6.13;;;15.00;99.90;;;;;;5076409;28;20044;-89
2023/10/06 07:33:48;;;;;;;8.70;5.50;;;14.60;99.90;;;;;;5095122;28;20048;-88
2023/10/06 07:36:17;;;;;;;8.90;6.25;;;14.60;99.90;;;;;;5077449;28;20056;-89
2023/10/06 07:38:44;;;;;;;12.45;6.40;;;14.60;99.90;;;;;;5076711;28;20104;-89
2023/10/06 07:41:24;;;;;;;15.98;5.97;;;14.60;99.90;;;;;;5110648;27;20051;-92
2023/10/06 07:43:50;;;;;;;12.55;6.10;;;14.60;99.90;;;;;;5099486;27;20083;-89
2023/10/06 07:46:17;;;;;;;11.07;5.78;;;14.70;99.90;;;;;;5082836;27;20078;-89
2023/10/06 07:48:46;;;;;;;11.85;6.35;;;14.70;99.90;;;;;;5100091;27;20095;-89
2023/10/06 07:51:13;;;;;;;11.55;5.38;;;14.80;99.90;;;;;;5099996;27;20039;-91
2023/10/06 07:53:39;;;;;;;13.52;6.57;;;14.80;99.90;;;;;;5098961;27;20058;-88
2023/10/06 07:56:08;;;;;;;14.35;6.15;;;15.00;99.90;;;;;;5115792;27;20068;-88
2023/10/06 07:58:37;;;;;;;13.57;6.15;;;15.30;99.90;;;;;;5085896;28;20048;-93
2023/10/06 08:01:07;;;;;;;9.57;5.80;;;15.00;99.90;;;;;;5080843;28;20048;-90
2023/10/06 08:03:41;;;;;;;9.95;5.78;;;15.00;99.90;;;;;;5080384;28;20065;-91
2023/10/06 08:06:08;;;;;;;12.32;6.13;;;15.10;99.90;;;;;;5080742;28;20039;-92
2023/10/06 08:08:35;;;;;;;11.45;6.10;;;15.40;99.90;;;;;;5080329;28;20104;-90
2023/10/06 08:11:06;;;;;;;12.43;6.00;;;15.10;99.90;;;;;;5078802;28;20047;-90
2023/10/06 08:13:36;;;;;;;9.48;5.25;;;15.10;99.90;;;;;;5079341;28;20043;-89
2023/10/06 08:16:02;;;;;;;12.73;5.88;;;15.10;99.90;;;;;;5078862;28;20502;-90
2023/10/06 08:18:32;;;;;;;11.35;6.03;;;15.10;99.90;;;;;;5096488;28;20043;-89
2023/10/06 08:21:00;;;;;;;12.63;6.30;;;15.20;99.90;;;;;;5095476;27;20039;-90
2023/10/06 08:23:32;;;;;;;13.65;6.00;;;15.10;99.90;;;;;;5101016;27;20080;-94
2023/10/06 08:26:00;;;;;;;11.48;5.80;;;15.20;99.90;;;;;;5100225;27;20506;-91
2023/10/06 08:28:31;;;;;;;12.32;5.97;;;15.10;99.90;;;;;;5100867;27;20049;-91
2023/10/06 08:30:58;;;;;;;11.93;6.05;;;15.10;99.90;;;;;;5100205;27;20118;-92
2023/10/06 08:33:27;;;;;;;12.57;6.20;;;15.30;99.90;;;;;;5100573;27;20043;-92
2023/10/06 08:36:01;;;;;;;13.38;6.15;;;15.20;99.90;;;;;;5098044;27;20068;-90
2023/10/06 08:38:26;;;;;;;12.52;6.07;;;15.30;99.90;;;;;;5100992;27;20061;-90
2023/10/06 08:40:58;;;;;;;13.10;6.93;;;15.50;99.90;;;;;;5096325;28;20052;-90
2023/10/06 08:43:29;;;;;;;10.32;5.97;;;15.50;99.90;;;;;;5085859;28;20036;-90
2023/10/06 08:45:59;;;;;;;9.63;5.28;;;15.90;99.90;;;;;;5075452;28;20107;-92
2023/10/06 08:48:30;;;;;;;12.98;6.38;;;15.80;99.90;;;;;;5078826;28;20052;-90
2023/10/06 08:50:59;;;;;;;14.75;6.40;;;15.70;99.90;;;;;;5096284;28;20047;-89
2023/10/06 08:53:26;;;;;;;12.02;5.40;;;15.70;99.90;;;;;;5076077;28;20028;-91
2023/10/06 08:55:52;;;;;;;11.15;5.30;;;15.80;99.90;;;;;;5090774;28;20122;-88
2023/10/06 08:58:18;;;;;;;10.82;5.38;;;15.70;99.90;;;;;;5103821;28;20039;-87
2023/10/06 09:00:44;;;;;;;12.13;5.47;;;15.80;99.90;;;;;;5107139;28;20556;-86
2023/10/06 09:03:14;;;;;;;10.75;5.32;;;15.80;99.90;;;;;;5091335;28;20058;-88
2023/10/06 09:05:46;;;;;;;10.65;6.07;;;15.90;99.90;;;;;;5108432;28;20104;-86
2023/10/06 09:08:14;;;;;;;12.65;5.65;;;15.90;99.90;;;;;;5090742;28;20040;-91
2023/10/06 09:10:48;;;;;;;12.48;6.15;;;16.40;99.90;;;;;;5073189;28;20147;-88
2023/10/06 09:13:16;;;;;;;8.70;5.30;;;16.00;99.90;;;;;;5071172;28;20040;-88
2023/10/06 09:15:43;;;;;;;12.35;6.03;;;16.10;99.90;;;;;;5070454;28;20159;-86
2023/10/06 09:18:20;;;;;;;11.35;5.72;;;16.10;99.90;;;;;;5080265;28;20043;-88
2023/10/06 09:20:47;;;;;;;8.35;6.00;;;16.20;99.90;;;;;;5089673;28;20032;-85
2023/10/06 09:23:36;;;;;;;8.65;6.10;;;16.20;99.90;;;;;;5087875;28;20040;-86
2023/10/06 09:26:05;;;;;;;10.35;6.03;;;16.20;99.90;;;;;;5070064;28;20145;-88
2023/10/06 09:28:31;;;;;;;9.60;5.85;;;16.40;99.90;;;;;;5070340;28;20082;-88
2023/10/06 09:31:05;;;;;;;8.30;5.90;;;16.30;99.90;;;;;;5089324;28;20083;-88
2023/10/06 09:33:37;;;;;;;9.90;5.43;;;16.40;99.90;;;;;;5071927;28;20044;-86
2023/10/06 09:36:07;;;;;;;10.98;6.15;;;16.40;99.90;;;;;;5086554;28;20126;-88
2023/10/06 09:38:35;;;;;;;9.48;6.65;;;16.50;99.90;;;;;;5088450;28;20044;-91
2023/10/06 09:41:01;;;;;;;10.05;5.75;;;16.70;99.90;;;;;;5094580;28;20047;-90
2023/10/06 09:43:35;;;;;;;9.23;5.50;;;16.90;99.90;;;;;;5085330;28;20048;-87
2023/10/06 09:46:15;;;;;;;9.73;5.57;;;16.80;99.90;;;;;;5087728;28;20047;-89
2023/10/06 09:48:45;;;;;;;12.45;5.75;;;17.00;99.90;;;;;;5074179;28;20036;-89
2023/10/06 09:51:12;;;;;;;8.40;5.35;;;17.00;99.90;;;;;;5074022;28;20592;-91
2023/10/06 09:53:39;;;;;;;10.23;5.40;;;17.10;99.90;;;;;;5076613;28;20044;-88
2023/10/06 09:56:11;;;;;;;10.63;5.68;;;17.20;99.90;;;;;;5076615;28;20605;-92
2023/10/06 09:58:54;;;;;;;9.77;6.20;;;17.20;99.90;;;;;;5092540;28;20693;-89
2023/10/06 10:01:24;;;;;;;9.50;5.45;;;17.20;99.90;;;;;;5091619;28;20047;-87
2023/10/06 10:03:52;;;;;;;10.27;4.93;;;17.30;99.90;;;;;;5090830;28;20047;-88
2023/10/06 10:06:21;;;;;;;10.77;5.90;;;17.30;99.90;;;;;;5093248;28;20036;-89
2023/10/06 10:08:51;;;;;;;11.55;4.88;;;17.30;99.90;;;;;;5093525;28;20127;-90
2023/10/06 10:11:28;;;;;;;10.02;5.53;;;17.30;99.90;;;;;;5081907;28;20052;-91
2023/10/06 10:14:10;;;;;;;9.00;5.28;;;17.40;99.90;;;;;;5095028;28;20043;-88
2023/10/06 10:16:46;;;;;;;8.80;5.05;;;17.50;99.90;;;;;;5094180;28;20180;-87
2023/10/06 10:19:18;;;;;;;9.80;4.88;;;17.50;99.90;;;;;;5091314;28;20159;-90
2023/10/06 10:21:44;;;;;;;8.75;5.18;;;17.60;99.90;;;;;;5086835;28;20048;-89
2023/10/06 10:24:14;;;;;;;8.85;4.88;;;17.80;99.90;;;;;;5091885;28;20043;-88
2023/10/06 10:26:41;;;;;;;8.75;4.35;;;17.80;99.90;;;;;;5090241;28;20036;-87
2023/10/06 10:29:12;;;;;;;7.85;4.55;;;17.90;99.90;;;;;;5091321;28;20499;-89
2023/10/06 10:31:39;;;;;;;7.05;4.43;;;18.00;99.90;;;;;;5080965;28;20050;-87
2023/10/06 10:34:08;;;;;;;10.05;4.82;;;18.10;99.90;;;;;;5107024;28;20560;-88
2023/10/06 10:36:34;;;;;;;11.55;4.75;;;18.40;99.90;;;;;;5074456;28;20142;-87
2023/10/06 10:39:16;;;;;;;8.60;4.82;;;18.20;99.90;;;;;;5110499;27;20140;-89
2023/10/06 10:41:42;;;;;;;8.48;4.57;;;18.40;99.90;;;;;;5097548;27;20050;-87
2023/10/06 10:44:12;;;;;;;10.30;5.32;;;18.10;99.90;;;;;;5102222;28;20677;-88
2023/10/06 10:46:46;;;;;;;10.35;5.18;;;18.30;99.90;;;;;;5091758;27;20046;-87
2023/10/06 10:49:17;;;;;;;7.47;4.38;;;18.00;99.90;;;;;;5110092;28;20051;-88
2023/10/06 10:51:57;;;;;;;10.20;4.75;;;18.00;99.90;;;;;;5093983;28;20070;-90
2023/10/06 10:54:26;;;;;;;8.55;4.40;;;18.00;99.90;;;;;;5093548;28;20510;-86
2023/10/06 10:56:53;;;;;;;8.18;4.32;;;18.00;99.90;;;;;;5111637;28;20047;-86
2023/10/06 10:59:22;;;;;;;6.18;4.32;;;18.40;99.90;;;;;;5101195;27;20051;-87
2023/10/06 11:01:53;;;;;;;9.52;4.72;;;18.30;99.90;;;;;;5076158;28;20538;-89
2023/10/06 11:04:30;;;;;;;8.52;4.72;;;18.30;99.90;;;;;;5077138;28;20075;-89
2023/10/06 11:07:11;;;;;;;6.97;4.43;;;18.00;99.90;;;;;;5076624;28;20509;-87
2023/10/06 11:09:48;;;;;;;8.95;4.55;;;17.90;99.90;;;;;;5083520;27;20032;-92
2023/10/06 11:12:17;;;;;;;10.63;5.13;;;18.00;99.90;;;;;;5084449;27;20078;-92
2023/10/06 11:14:43;;;;;;;7.78;4.63;;;17.90;99.90;;;;;;5081536;28;20070;-88
2023/10/06 11:17:11;;;;;;;8.52;4.05;;;17.90;99.90;;;;;;5077953;28;20111;-90
2023/10/06 11:19:38;;;;;;;6.38;4.10;;;17.90;99.90;;;;;;5079637;28;20035;-88
2023/10/06 11:22:22;;;;;;;10.30;4.43;;;17.70;99.90;;;;;;5094545;28;20043;-90
2023/10/06 11:24:49;;;;;;;9.80;4.43;;;17.90;99.90;;;;;;5093807;28;20107;-88
2023/10/06 11:27:22;;;;;;;8.93;4.30;;;17.90;99.90;;;;;;5078093;28;20059;-90
2023/10/06 11:29:51;;;;;;;7.40;4.30;;;17.90;99.90;;;;;;5093404;28;20086;-88
2023/10/06 11:32:19;;;;;;;9.88;4.30;;;18.00;99.90;;;;;;5078752;27;20047;-89
2023/10/06 11:34:45;;;;;;;7.22;3.78;;;18.00;99.90;;;;;;5084011;27;20035;-88
2023/10/06 11:37:18;;;;;;;6.53;3.90;;;18.00;99.90;;;;;;5100838;28;20043;-88
2023/10/06 11:39:44;;;;;;;9.75;4.40;;;18.30;99.90;;;;;;5089310;28;20094;-89
2023/10/06 11:42:38;;;;;;;8.27;4.05;;;18.00;99.90;;;;;;5089003;28;20127;-89
2023/10/06 11:45:11;;;;;;;7.55;4.28;;;18.00;99.90;;;;;;5088546;28;20207;-86
2023/10/06 11:47:40;;;;;;;8.38;4.32;;;18.00;99.90;;;;;;5091308;28;20049;-87
2023/10/06 11:50:13;;;;;;;9.57;4.53;;;18.00;99.90;;;;;;5090820;28;20035;-85
2023/10/06 11:52:41;;;;;;;;;;;18.00;99.90;;;;;;5088643;28;20194;-85
2023/10/06 11:55:11;;;;;;;8.55;4.13;;;17.90;99.90;;;;;;5071863;28;19920;-88
2023/10/06 11:57:47;;;;;;;8.77;4.07;;;18.00;99.90;;;;;;5071186;28;20131;-86
2023/10/06 12:00:17;;;;;;;12.20;4.80;;;18.00;99.90;;;;;;5083390;28;20042;-86
2023/10/06 12:02:53;;;;;;;10.05;4.57;;;18.00;99.90;;;;;;5070950;28;20135;-86
2023/10/06 12:05:22;;;;;;;9.82;4.40;;;18.20;99.90;;;;;;5087649;28;20134;-87
2023/10/06 12:07:51;;;;;;;9.98;4.70;;;18.10;99.90;;;;;;5072553;28;20066;-86
2023/10/06 12:10:18;;;;;;;8.07;4.45;;;18.40;99.90;;;;;;5074599;28;20044;-86
2023/10/06 12:12:49;;;;;;;9.88;4.13;;;18.30;99.90;;;;;;5073601;28;20105;-89
2023/10/06 12:15:15;;;;;;;8.85;4.57;;;18.70;99.90;;;;;;5089624;28;20048;-85
2023/10/06 12:17:41;;;;;;;6.03;4.30;;;18.40;99.90;;;;;;5090446;28;20051;-83
2023/10/06 12:20:13;;;;;;;10.63;4.25;;;18.60;99.90;;;;;;5089972;28;20043;-86
2023/10/06 12:22:40;;;;;;;8.77;4.65;;;18.70;99.90;;;;;;5090981;28;20078;-86
2023/10/06 12:25:07;;;;;;;12.52;4.70;;;18.80;99.90;;;;;;5090659;28;20731;-88
2023/10/06 12:27:32;;;;;;;10.98;4.78;;;18.90;99.90;;;;;;5103985;28;20044;-87
2023/10/06 12:30:02;;;;;;;9.40;4.50;;;18.90;99.90;;;;;;5092222;28;20100;-86
2023/10/06 12:32:30;;;;;;;9.20;4.15;;;19.20;99.90;;;;;;5095791;28;20419;-87
2023/10/06 12:34:59;;;;;;;15.20;4.72;;;18.70;99.90;;;;;;5105125;28;20048;-86
2023/10/06 12:37:25;;;;;;;10.15;4.13;;;18.60;99.90;;;;;;5087145;28;20511;-88
2023/10/06 12:39:51;;;;;;;9.70;4.20;;;18.70;99.90;;;;;;5086051;28;20051;-87
2023/10/06 12:42:18;;;;;;;10.23;4.15;;;18.60;99.90;;;;;;5070078;28;20117;-86
2023/10/06 12:44:43;;;;;;;7.82;4.28;;;18.70;99.90;;;;;;5086228;28;20044;-86
2023/10/06 12:47:12;;;;;;;10.82;4.82;;;18.80;99.90;;;;;;5085928;28;20131;-86
2023/10/06 12:49:43;;;;;;;12.38;4.53;;;18.80;99.90;;;;;;5086610;28;20047;-85
2023/10/06 12:52:10;;;;;;;9.35;4.15;;;18.90;99.90;;;;;;5090462;28;20138;-86
2023/10/06 12:54:36;;;;;;;8.27;4.43;;;18.90;99.90;;;;;;5107868;28;20091;-88
2023/10/06 12:57:02;;;;;;;9.75;3.95;;;19.00;99.90;;;;;;5090644;28;20095;-89
2023/10/06 12:59:29;;;;;;;7.72;4.18;;;19.00;99.90;;;;;;5088603;28;20791;-86
2023/10/06 13:01:56;;;;;;;8.45;3.67;;;19.10;99.90;;;;;;5090199;28;20116;-88
2023/10/06 13:04:23;;;;;;;13.95;5.65;;;19.20;99.90;;;;;;5071486;28;20432;-87